Veersedijk — PBCX — position and weather

sailwx.info

Track history (hours):
 
Tides and Currents Weather Stations Pressure Air Temp Water Temp Dewpoint Dewpoint Depression Visibility Wind Speed Wind Dir Waves Ship Positions

Veersedijk

Last reported at 2017-Dec-11 13:52 UTC. Time now 2017-Dec-14 09:57 UTC.
Position N 50°25' E 000°10'.

Length 132 m; draft 5.2 m.

Type: Cargo ship. MMSI: 244268000.

Date/timePositionNaut miles runAvg speedWind from/ knotsBaromVisibWave heightAir tempDewpointWater temp
2017-Dec-11 13:52N 50°25' E 000°10'1 2.0
2017-Dec-11 13:22N 50°25' E 000°08'1 2.1
2017-Dec-11 12:51N 50°25' E 000°06'2 1.5
2017-Dec-11 11:41N 50°25' E 000°04'0 1.6
2017-Dec-11 11:29N 50°25' E 000°03'1 1.3
2017-Dec-11 11:00N 50°25' E 000°03'1 1.1
2017-Dec-11 10:30N 50°26' E 000°02'1 1.0
2017-Dec-11 10:01N 50°26' E 000°02'0 0.8
2017-Dec-11 09:30N 50°27' E 000°02'0 0.8
2017-Dec-11 08:59N 50°27' E 000°01'0 1.0
2017-Dec-11 08:30N 50°27' E 000°00'0 0.7
2017-Dec-11 07:59N 50°27' W 000°00'1 0.9
2017-Dec-11 07:20N 50°26' W 000°01'0 1.2
2017-Dec-11 07:00N 50°27' W 000°02'1 1.1
2017-Dec-11 06:30N 50°27' W 000°02'2 2.8
2017-Dec-11 05:50N 50°27' E 000°01'25 0.6
2017-Dec-09 13:58N 50°33' E 000°39'1 0.5
2017-Dec-09 12:32N 50°33' E 000°38'1 3.5
2017-Dec-09 12:06N 50°32' E 000°39'1 1.3
2017-Dec-09 11:18N 50°32' E 000°37'2 0.1
2017-Dec-08 21:06N 50°31' E 000°35'  
Track history (hours):
 
Tides and Currents Weather Stations Pressure Air Temp Water Temp Dewpoint Dewpoint Depression Visibility Wind Speed Wind Dir Waves Ship Positions

Veersedijk

Last reported at 2017-Dec-11 13:52 UTC. Time now 2017-Dec-14 09:57 UTC.
Position N 50°25' E 000°10'.

Length 132 m; draft 5.2 m.

Type: Cargo ship. MMSI: 244268000.

Date/timePositionNaut miles runAvg speedWind from/ knotsBaromVisibWave heightAir tempDewpointWater temp
2017-Dec-11 13:52N 50°25' E 000°10'1 2.0
2017-Dec-11 13:22N 50°25' E 000°08'1 2.1
2017-Dec-11 12:51N 50°25' E 000°06'2 1.5
2017-Dec-11 11:41N 50°25' E 000°04'0 1.6
2017-Dec-11 11:29N 50°25' E 000°03'1 1.3
2017-Dec-11 11:00N 50°25' E 000°03'1 1.1
2017-Dec-11 10:30N 50°26' E 000°02'1 1.0
2017-Dec-11 10:01N 50°26' E 000°02'0 0.8
2017-Dec-11 09:30N 50°27' E 000°02'0 0.8
2017-Dec-11 08:59N 50°27' E 000°01'0 1.0
2017-Dec-11 08:30N 50°27' E 000°00'0 0.7
2017-Dec-11 07:59N 50°27' W 000°00'1 0.9
2017-Dec-11 07:20N 50°26' W 000°01'0 1.2
2017-Dec-11 07:00N 50°27' W 000°02'1 1.1
2017-Dec-11 06:30N 50°27' W 000°02'2 2.8
2017-Dec-11 05:50N 50°27' E 000°01'25 0.6
2017-Dec-09 13:58N 50°33' E 000°39'1 0.5
2017-Dec-09 12:32N 50°33' E 000°38'1 3.5
2017-Dec-09 12:06N 50°32' E 000°39'1 1.3
2017-Dec-09 11:18N 50°32' E 000°37'2 0.1
2017-Dec-08 21:06N 50°31' E 000°35'  

Dump ship's entire track history